Terminal Aerodrome Forecast
Issued by NWS

Home | Current Version | Previous Version | Text Only | Print | Product List | Glossary On
Versions: 1 2 3 4 5 6 7 8 9 10 11 12 13 14 15 16 17 18 19 20 21 22 23 24 25 26 27 28 29
000
FTUS41 KBOX 281122
TAFHYA
TAF
KHYA 281122Z 2812/2912 22007KT P6SM SCT006
     FM281300 22006KT P6SM BKN006
     FM281600 20008KT P6SM SCT010
     FM290300 24006KT 6SM BR SCT003
     FM290900 25004KT 6SM BR BKN003
     FM291000 VRB03KT 6SM BR SCT003=

USA.gov is the U.S. government's official web portal to all federal, state and local government web resources and services.